createdAt,value
2019-01-21T00:00:42.773Z,101718.98
2019-01-21T00:03:14.687Z,101714.17
2019-01-21T00:05:43.212Z,101719.94
2019-01-21T00:08:12.441Z,101718.38
2019-01-21T00:10:41.698Z,101719.02
2019-01-21T00:13:11.028Z,101721.66
2019-01-21T00:15:40.377Z,101717.83
2019-01-21T00:18:09.641Z,101718.86
2019-01-21T00:20:38.917Z,101723.36
2019-01-21T00:23:10.100Z,101716.23
2019-01-21T00:25:39.372Z,101730.69
2019-01-21T00:28:08.705Z,101726.95
2019-01-21T00:30:37.973Z,101726.25
2019-01-21T00:33:09.139Z,101725.40
2019-01-21T00:35:38.486Z,101724.11
2019-01-21T00:38:07.730Z,101728.77
2019-01-21T00:40:36.995Z,101725.23
2019-01-21T00:43:06.248Z,101722.13
2019-01-21T00:45:35.529Z,101721.57
2019-01-21T00:48:05.017Z,101723.48
2019-01-21T00:50:34.526Z,101726.00
2019-01-21T00:53:03.777Z,101726.85
2019-01-21T00:55:33.015Z,101729.23
2019-01-21T00:58:02.280Z,101729.39
2019-01-21T01:00:31.536Z,101714.14
2019-01-21T01:03:00.861Z,101725.22
2019-01-21T01:05:30.275Z,101726.86
2019-01-21T01:07:59.531Z,101727.02
2019-01-21T01:10:28.780Z,101724.61
2019-01-21T01:12:58.065Z,101723.55
2019-01-21T01:15:27.301Z,101722.36
2019-01-21T01:17:57.561Z,101723.25
2019-01-21T01:20:26.806Z,101726.42
2019-01-21T01:22:56.086Z,101735.16
2019-01-21T01:25:25.321Z,101737.12
2019-01-21T01:27:54.666Z,101747.61
2019-01-21T01:30:23.919Z,101750.18
2019-01-21T01:32:53.201Z,101754.04
2019-01-21T01:35:22.544Z,101764.11
2019-01-21T01:37:51.804Z,101759.47
2019-01-21T01:40:21.252Z,101762.36
2019-01-21T01:42:50.567Z,101759.02
2019-01-21T01:45:21.668Z,101767.15
2019-01-21T01:47:54.521Z,101774.23
2019-01-21T01:50:23.851Z,101774.56
2019-01-21T01:52:53.108Z,101775.45
2019-01-21T01:55:24.126Z,101787.13
2019-01-21T01:57:55.417Z,101788.03
2019-01-21T02:00:24.759Z,101789.30
2019-01-21T02:02:54.079Z,101796.99
2019-01-21T02:05:24.377Z,101784.16
2019-01-21T02:07:53.798Z,101785.23
2019-01-21T02:10:24.088Z,101789.08
2019-01-21T02:12:53.315Z,101781.59
2019-01-21T02:15:22.647Z,101780.91
2019-01-21T02:17:52.430Z,101778.56
2019-01-21T02:20:21.811Z,101779.53
2019-01-21T02:22:53.363Z,101781.22
2019-01-21T02:25:25.632Z,101786.40
2019-01-21T02:28:19.279Z,101790.95
2019-01-21T02:31:21.193Z,101783.81
2019-01-21T02:34:11.521Z,101782.05
2019-01-21T02:37:05.997Z,101789.23
2019-01-21T02:39:57.396Z,101780.84
2019-01-21T02:42:41.239Z,101781.81
2019-01-21T02:45:30.093Z,101784.45
2019-01-21T02:48:09.555Z,101783.95
2019-01-21T02:50:54.806Z,101772.08
2019-01-21T02:53:27.225Z,101769.69
2019-01-21T02:56:11.313Z,101771.61
2019-01-21T02:59:00.756Z,101773.64
2019-01-21T03:01:38.915Z,101775.47
2019-01-21T03:04:36.768Z,101778.09
2019-01-21T03:07:31.848Z,101775.93
2019-01-21T03:10:25.037Z,101772.47
2019-01-21T03:13:21.277Z,101777.39
2019-01-21T03:16:13.155Z,101779.64
2019-01-21T03:19:09.303Z,101771.83
2019-01-21T03:21:47.413Z,101774.73
2019-01-21T03:24:22.389Z,101768.52
2019-01-21T03:26:54.827Z,101765.85
2019-01-21T03:29:46.172Z,101769.16
2019-01-21T03:32:35.181Z,101765.35
2019-01-21T03:35:08.572Z,101757.45
2019-01-21T03:37:58.033Z,101757.24
2019-01-21T03:40:50.811Z,101756.63
2019-01-21T03:43:28.476Z,101754.84
2019-01-21T03:46:21.270Z,101756.75
2019-01-21T03:48:51.892Z,101760.34
2019-01-21T03:51:34.773Z,101756.27
2019-01-21T03:54:07.193Z,101759.95
2019-01-21T03:56:39.022Z,101756.15
2019-01-21T03:59:15.160Z,101758.56
2019-01-21T04:02:06.139Z,101754.83
2019-01-21T04:05:13.499Z,101759.64
2019-01-21T04:08:16.213Z,101760.24
2019-01-21T04:10:54.418Z,101760.60
2019-01-21T04:13:49.103Z,101757.34
2019-01-21T04:16:51.658Z,101762.52
2019-01-21T04:19:24.073Z,101762.39
2019-01-21T04:22:06.693Z,101755.07
2019-01-21T04:24:39.152Z,101759.74
2019-01-21T04:27:17.360Z,101759.97
2019-01-21T04:30:14.869Z,101759.64
2019-01-21T04:33:07.866Z,101755.44
2019-01-21T04:35:49.206Z,101757.58
2019-01-21T04:38:33.303Z,101762.98
2019-01-21T04:41:08.208Z,101760.94
2019-01-21T04:43:46.632Z,101764.08
2019-01-21T04:46:35.107Z,101761.02
2019-01-21T04:49:11.361Z,101763.30
2019-01-21T04:52:13.551Z,101763.33
2019-01-21T04:55:06.597Z,101764.26
2019-01-21T04:57:42.841Z,101761.94
2019-01-21T05:00:26.868Z,101764.85
2019-01-21T05:03:14.070Z,101767.96
2019-01-21T05:05:52.385Z,101767.66
2019-01-21T05:08:57.956Z,101774.56
2019-01-21T05:11:30.389Z,101766.34
2019-01-21T05:14:26.964Z,101757.48
2019-01-21T05:17:17.321Z,101757.83
2019-01-21T05:20:05.912Z,101762.25
2019-01-21T05:22:41.092Z,101764.89
2019-01-21T05:25:23.154Z,101773.79
2019-01-21T05:28:16.307Z,101769.94
2019-01-21T05:31:07.427Z,101773.31
2019-01-21T05:33:55.564Z,101768.84
2019-01-21T05:36:27.989Z,101766.72
2019-01-21T05:39:09.248Z,101767.42
2019-01-21T05:41:42.629Z,101762.52
2019-01-21T05:44:21.104Z,101751.73
2019-01-21T05:47:03.648Z,101750.41
2019-01-21T05:49:41.998Z,101751.72
2019-01-21T05:52:30.675Z,101751.59
2019-01-21T05:55:15.252Z,101756.39
2019-01-21T05:58:02.256Z,101757.61
2019-01-21T06:01:02.066Z,101758.44
2019-01-21T06:03:40.017Z,101759.88
2019-01-21T06:06:28.700Z,101760.71
2019-01-21T06:09:07.735Z,101764.51
2019-01-21T06:12:00.887Z,101757.72
2019-01-21T06:14:35.735Z,101762.77
2019-01-21T06:17:08.178Z,101772.05
2019-01-21T06:19:46.243Z,101771.80
2019-01-21T06:22:33.305Z,101778.67
2019-01-21T06:25:11.577Z,101777.33
2019-01-21T06:27:50.478Z,101782.50
2019-01-21T06:30:41.935Z,101790.04
2019-01-21T06:33:38.706Z,101783.22
2019-01-21T06:36:18.258Z,101788.99
2019-01-21T06:39:23.881Z,101785.74
2019-01-21T06:42:11.245Z,101788.30
2019-01-21T06:45:05.867Z,101789.62
2019-01-21T06:47:47.968Z,101788.78
2019-01-21T06:50:41.434Z,101787.27
2019-01-21T06:53:32.872Z,101781.89
2019-01-21T06:56:19.888Z,101786.31
2019-01-21T06:59:07.938Z,101790.33
2019-01-21T07:01:41.403Z,101792.13
2019-01-21T07:04:34.399Z,101789.70
2019-01-21T07:07:22.810Z,101799.98
2019-01-21T07:10:01.119Z,101797.34
2019-01-21T07:12:46.102Z,101799.81
2019-01-21T07:15:41.132Z,101806.52
2019-01-21T07:18:28.093Z,101808.67
2019-01-21T07:21:00.514Z,101811.30
2019-01-21T07:23:39.024Z,101809.52
2019-01-21T07:26:23.095Z,101812.84
2019-01-21T07:28:58.271Z,101816.23
2019-01-21T07:31:40.446Z,101814.65
2019-01-21T07:34:35.101Z,101811.42
2019-01-21T07:37:16.238Z,101813.73
2019-01-21T07:40:01.644Z,101825.54
2019-01-21T07:42:38.591Z,101834.22
2019-01-21T07:45:33.979Z,101835.07
2019-01-21T07:48:21.352Z,101837.82
2019-01-21T07:51:16.941Z,101833.98
2019-01-21T07:53:54.946Z,101833.99
2019-01-21T07:56:41.220Z,101834.67
2019-01-21T07:59:28.484Z,101836.62
2019-01-21T08:02:17.052Z,101834.92
2019-01-21T08:04:50.451Z,101839.03
2019-01-21T08:07:25.575Z,101848.84
2019-01-21T08:10:14.105Z,101853.07
2019-01-21T08:12:59.285Z,101855.69
2019-01-21T08:15:40.478Z,101860.59
2019-01-21T08:18:12.935Z,101868.61
2019-01-21T08:20:45.350Z,101873.26
2019-01-21T08:23:38.178Z,101872.00
2019-01-21T08:26:22.262Z,101872.92
2019-01-21T08:29:13.676Z,101879.82
2019-01-21T08:31:49.898Z,101889.16
2019-01-21T08:34:37.985Z,101884.78
2019-01-21T08:37:25.130Z,101879.84
2019-01-21T08:40:08.458Z,101881.22
2019-01-21T08:42:46.739Z,101890.34
2019-01-21T08:45:21.974Z,101879.66
2019-01-21T08:48:06.082Z,101878.77
2019-01-21T08:50:41.169Z,101885.43
2019-01-21T08:53:13.590Z,101881.56
2019-01-21T08:55:49.057Z,101881.27
2019-01-21T08:58:39.301Z,101875.84
2019-01-21T09:01:23.327Z,101873.14
2019-01-21T09:04:08.372Z,101872.38
2019-01-21T09:06:49.313Z,101877.67
2019-01-21T09:09:21.736Z,101880.27
2019-01-21T09:12:09.766Z,101878.41
2019-01-21T09:14:42.186Z,101873.66
2019-01-21T09:17:26.290Z,101871.89
2019-01-21T09:20:10.471Z,101870.01
2019-01-21T09:22:50.460Z,101875.02
2019-01-21T09:25:29.707Z,101871.80
2019-01-21T09:28:15.027Z,101872.02
2019-01-21T09:31:04.801Z,101867.30
2019-01-21T09:33:42.873Z,101882.13
2019-01-21T09:36:22.926Z,101866.47
2019-01-21T09:38:58.178Z,101864.26
2019-01-21T09:41:33.128Z,101857.48
2019-01-21T09:44:08.064Z,101863.64
2019-01-21T09:46:46.693Z,101874.14
2019-01-21T09:49:14.905Z,101877.13
2019-01-21T09:51:46.182Z,101874.13
2019-01-21T09:54:15.723Z,101877.70
2019-01-21T09:56:48.196Z,101878.41
2019-01-21T09:59:17.454Z,101879.17
2019-01-21T10:01:47.049Z,101878.13
2019-01-21T10:04:19.501Z,101885.67
2019-01-21T10:06:52.916Z,101878.36
2019-01-21T10:09:31.143Z,101877.21
2019-01-21T10:12:22.779Z,101880.09
2019-01-21T10:15:14.140Z,101876.09
2019-01-21T10:17:59.805Z,101868.08
2019-01-21T10:20:57.296Z,101864.77
2019-01-21T10:23:32.402Z,101860.92
2019-01-21T10:26:10.500Z,101860.37
2019-01-21T10:28:45.406Z,101852.78
2019-01-21T10:31:42.447Z,101853.39
2019-01-21T10:34:31.079Z,101849.87
2019-01-21T10:37:30.425Z,101852.58
2019-01-21T10:40:20.776Z,101843.83
2019-01-21T10:43:01.486Z,101844.96
2019-01-21T10:45:42.160Z,101841.41
2019-01-21T10:48:20.166Z,101838.58
2019-01-21T10:50:59.291Z,101828.88
2019-01-21T10:53:36.453Z,101826.48
2019-01-21T10:56:19.396Z,101822.87
2019-01-21T10:58:51.852Z,101820.77
2019-01-21T11:01:36.189Z,101820.83
2019-01-21T11:04:20.113Z,101825.08
2019-01-21T11:07:14.370Z,101811.09
2019-01-21T11:10:01.682Z,101799.23
2019-01-21T11:12:46.548Z,101799.80
2019-01-21T11:15:26.512Z,101799.17
2019-01-21T11:18:04.729Z,101804.99
2019-01-21T11:20:57.866Z,101804.73
2019-01-21T11:23:34.024Z,101803.78
2019-01-21T11:26:40.096Z,101805.84
2019-01-21T11:29:41.937Z,101805.25
2019-01-21T11:32:26.974Z,101808.73
2019-01-21T11:35:09.867Z,101797.45
2019-01-21T11:37:52.138Z,101786.22
2019-01-21T11:40:31.337Z,101782.80
2019-01-21T11:43:14.435Z,101785.33
2019-01-21T11:45:56.362Z,101789.25
2019-01-21T11:48:46.719Z,101786.15
2019-01-21T11:51:42.755Z,101779.81
2019-01-21T11:54:21.077Z,101768.95
2019-01-21T11:57:04.425Z,101776.53
2019-01-21T11:59:45.515Z,101778.22
2019-01-21T12:02:26.785Z,101778.27
2019-01-21T12:05:01.127Z,101767.77
2019-01-21T12:07:53.842Z,101769.27
2019-01-21T12:10:32.617Z,101764.97
2019-01-21T12:13:21.273Z,101765.08
2019-01-21T12:16:24.985Z,101763.13
2019-01-21T12:19:01.109Z,101756.91
2019-01-21T12:21:39.118Z,101756.17
2019-01-21T12:24:12.683Z,101752.36
2019-01-21T12:27:03.723Z,101748.48
2019-01-21T12:29:44.992Z,101747.48
2019-01-21T12:32:40.076Z,101734.13
2019-01-21T12:35:24.404Z,101735.77
2019-01-21T12:37:56.829Z,101738.78
2019-01-21T12:40:29.304Z,101724.13
2019-01-21T12:43:20.817Z,101721.84
2019-01-21T12:46:01.855Z,101718.74
2019-01-21T12:48:34.335Z,101725.50
2019-01-21T12:51:18.890Z,101714.18
2019-01-21T12:54:01.226Z,101707.47
2019-01-21T12:56:48.452Z,101709.62
2019-01-21T12:59:53.453Z,101715.13
2019-01-21T13:02:32.453Z,101713.03
2019-01-21T13:05:07.539Z,101710.38
2019-01-21T13:07:45.853Z,101717.31
2019-01-21T13:10:27.201Z,101715.02
2019-01-21T13:13:21.706Z,101715.18
2019-01-21T13:16:00.632Z,101702.60
2019-01-21T13:18:45.902Z,101702.61
2019-01-21T13:21:40.533Z,101695.55
2019-01-21T13:24:15.535Z,101701.44
2019-01-21T13:26:52.049Z,101692.48
2019-01-21T13:29:24.485Z,101689.09
2019-01-21T13:32:12.232Z,101682.98
2019-01-21T13:34:44.707Z,101673.75
2019-01-21T13:37:33.428Z,101670.70
2019-01-21T13:40:28.520Z,101668.84
2019-01-21T13:43:19.212Z,101664.23
2019-01-21T13:46:14.066Z,101660.35
2019-01-21T13:48:49.528Z,101656.59
2019-01-21T13:51:30.590Z,101651.19
2019-01-21T13:54:31.834Z,101654.73
2019-01-21T13:57:19.117Z,101651.64
2019-01-21T14:00:07.273Z,101645.81
2019-01-21T14:02:39.681Z,101635.83
2019-01-21T14:05:19.142Z,101622.40
2019-01-21T14:08:04.247Z,101617.64
2019-01-21T14:10:48.450Z,101616.77
2019-01-21T14:13:27.761Z,101621.85
2019-01-21T14:16:05.735Z,101609.09
2019-01-21T14:18:43.056Z,101608.73
2019-01-21T14:21:18.138Z,101606.95
2019-01-21T14:24:02.568Z,101599.21
2019-01-21T14:26:38.947Z,101592.78
2019-01-21T14:29:11.360Z,101595.44
2019-01-21T14:32:08.395Z,101582.31
2019-01-21T14:34:40.828Z,101585.61
2019-01-21T14:37:37.026Z,101585.80
2019-01-21T14:40:26.405Z,101580.19
2019-01-21T14:43:14.780Z,101591.47
2019-01-21T14:46:10.286Z,101590.20
2019-01-21T14:49:04.458Z,101590.80
2019-01-21T14:51:35.738Z,101588.12
2019-01-21T14:54:36.529Z,101585.95
2019-01-21T14:57:29.957Z,101582.51
2019-01-21T15:00:15.351Z,101579.20
2019-01-21T15:02:53.597Z,101586.84
2019-01-21T15:05:35.189Z,101589.13
2019-01-21T15:08:07.775Z,101577.38
2019-01-21T15:10:52.083Z,101578.12
2019-01-21T15:13:44.260Z,101579.86
2019-01-21T15:16:16.673Z,101580.77
2019-01-21T15:18:57.628Z,101576.95
2019-01-21T15:21:44.230Z,101579.59
2019-01-21T15:24:29.649Z,101579.39
2019-01-21T15:27:22.260Z,101579.55
2019-01-21T15:29:55.687Z,101590.91
2019-01-21T15:32:39.952Z,101600.84
2019-01-21T15:35:20.652Z,101603.79
2019-01-21T15:38:06.003Z,101607.00
2019-01-21T15:41:03.236Z,101599.75
2019-01-21T15:43:35.639Z,101598.10
2019-01-21T15:46:17.158Z,101591.23
2019-01-21T15:48:53.581Z,101594.78
2019-01-21T15:51:29.835Z,101589.86
2019-01-21T15:54:17.947Z,101573.59
2019-01-21T15:56:57.132Z,101584.34
2019-01-21T15:59:35.095Z,101580.52
2019-01-21T16:02:10.026Z,101574.97
2019-01-21T16:04:46.206Z,101576.41
2019-01-21T16:07:21.329Z,101572.58
2019-01-21T16:10:00.743Z,101568.78
2019-01-21T16:12:35.909Z,101562.92
2019-01-21T16:15:33.704Z,101557.38
2019-01-21T16:18:22.474Z,101551.19
2019-01-21T16:21:13.721Z,101544.66
2019-01-21T16:24:01.756Z,101541.73
2019-01-21T16:26:34.190Z,101548.28
2019-01-21T16:29:09.398Z,101544.66
2019-01-21T16:31:39.396Z,101539.00
2019-01-21T16:34:32.189Z,101539.42
2019-01-21T16:37:11.750Z,101533.38
2019-01-21T16:40:10.870Z,101534.00
2019-01-21T16:42:41.053Z,101541.34
2019-01-21T16:45:10.291Z,101536.89
2019-01-21T16:47:39.542Z,101543.08
2019-01-21T16:50:08.866Z,101536.05
2019-01-21T16:52:38.139Z,101534.56
2019-01-21T16:55:08.531Z,101540.05
2019-01-21T16:57:37.789Z,101540.75
2019-01-21T17:00:10.409Z,101537.89
2019-01-21T17:02:39.680Z,101531.44
2019-01-21T17:05:11.472Z,101528.92
2019-01-21T17:07:41.815Z,101524.74
2019-01-21T17:10:14.789Z,101524.11
2019-01-21T17:12:44.053Z,101525.24
2019-01-21T17:15:13.970Z,101521.42
2019-01-21T17:17:44.360Z,101522.53
2019-01-21T17:20:17.107Z,101519.22
2019-01-21T17:22:47.409Z,101518.16
2019-01-21T17:25:16.810Z,101527.69
2019-01-21T17:27:46.064Z,101517.97
2019-01-21T17:30:17.153Z,101518.67
2019-01-21T17:32:46.396Z,101512.98
2019-01-21T17:35:15.745Z,101510.05
2019-01-21T17:37:44.996Z,101507.13
2019-01-21T17:40:17.830Z,101501.63
2019-01-21T17:42:47.146Z,101504.89
2019-01-21T17:45:18.835Z,101508.83
2019-01-21T17:47:48.150Z,101498.23
2019-01-21T17:50:18.723Z,101501.97
2019-01-21T17:52:47.976Z,101495.02
2019-01-21T17:55:17.287Z,101492.22
2019-01-21T17:57:46.658Z,101489.63
2019-01-21T18:00:21.393Z,101489.83
2019-01-21T18:02:50.653Z,101496.52
2019-01-21T18:05:19.908Z,101496.81
2019-01-21T18:07:49.150Z,101497.14
2019-01-21T18:10:19.079Z,101494.92
2019-01-21T18:12:48.403Z,101494.73
2019-01-21T18:15:17.801Z,101498.22
2019-01-21T18:17:48.254Z,101494.87
2019-01-21T18:20:19.891Z,101497.19
2019-01-21T18:22:50.152Z,101494.03
2019-01-21T18:25:19.398Z,101490.56
2019-01-21T18:27:49.704Z,101491.47
2019-01-21T18:30:23.020Z,101494.41
2019-01-21T18:32:52.420Z,101497.78
2019-01-21T18:35:21.676Z,101494.13
2019-01-21T18:37:52.931Z,101498.26
2019-01-21T18:40:22.323Z,101494.05
2019-01-21T18:42:51.643Z,101498.98
2019-01-21T18:45:25.084Z,101483.59
2019-01-21T18:47:54.427Z,101495.02
2019-01-21T18:50:23.680Z,101487.47
2019-01-21T18:52:53.379Z,101491.16
2019-01-21T18:55:22.702Z,101489.44
2019-01-21T18:57:55.865Z,101483.98
2019-01-21T19:00:24.166Z,101479.26
2019-01-21T19:02:54.360Z,101478.81
2019-01-21T19:05:24.671Z,101478.80
2019-01-21T19:07:58.948Z,101470.35
2019-01-21T19:10:28.208Z,101462.83
2019-01-21T19:12:57.465Z,101455.73
2019-01-21T19:15:29.144Z,101452.03
2019-01-21T19:17:58.427Z,101457.61
2019-01-21T19:20:27.926Z,101452.62
2019-01-21T19:22:57.201Z,101452.38
2019-01-21T19:25:26.454Z,101447.18
2019-01-21T19:27:55.699Z,101455.38
2019-01-21T19:30:27.026Z,101456.20
2019-01-21T19:32:56.438Z,101450.23
2019-01-21T19:35:28.434Z,101457.64
2019-01-21T19:37:57.672Z,101451.96
2019-01-21T19:40:27.921Z,101451.51
2019-01-21T19:42:58.166Z,101447.83
2019-01-21T19:45:27.493Z,101439.75
2019-01-21T19:47:56.717Z,101444.85
2019-01-21T19:50:27.949Z,101439.85
2019-01-21T19:52:57.262Z,101436.80
2019-01-21T19:55:30.463Z,101436.50
2019-01-21T19:57:59.692Z,101430.30
2019-01-21T20:00:30.032Z,101423.27
2019-01-21T20:02:59.273Z,101420.72
2019-01-21T20:05:28.539Z,101427.44
2019-01-21T20:07:57.803Z,101423.83
2019-01-21T20:10:27.055Z,101422.50
2019-01-21T20:12:56.318Z,101416.91
2019-01-21T20:15:25.563Z,101422.09
2019-01-21T20:17:54.858Z,101420.46
2019-01-21T20:20:30.987Z,101417.05
2019-01-21T20:23:00.395Z,101416.44
2019-01-21T20:25:29.694Z,101415.57
2019-01-21T20:27:58.950Z,101413.48
2019-01-21T20:30:28.199Z,101410.02
2019-01-21T20:32:58.572Z,101406.30
2019-01-21T20:35:27.846Z,101411.71
2019-01-21T20:37:57.116Z,101402.89
2019-01-21T20:40:28.493Z,101403.16
2019-01-21T20:42:58.768Z,101405.25
2019-01-21T20:45:28.044Z,101399.13
2019-01-21T20:47:57.402Z,101392.42
2019-01-21T20:50:29.192Z,101391.76
2019-01-21T20:52:58.516Z,101389.16
2019-01-21T20:55:27.948Z,101390.88
2019-01-21T20:57:57.228Z,101390.66
2019-01-21T21:00:30.476Z,101385.55
2019-01-21T21:02:59.922Z,101388.95
2019-01-21T21:05:29.298Z,101382.84
2019-01-21T21:07:58.560Z,101382.26
2019-01-21T21:10:28.775Z,101378.78
2019-01-21T21:13:04.892Z,101373.88
2019-01-21T21:15:36.071Z,101378.00
2019-01-21T21:18:05.399Z,101378.88
2019-01-21T21:20:34.669Z,101385.87
2019-01-21T21:23:03.923Z,101378.14
2019-01-21T21:25:33.198Z,101372.70
2019-01-21T21:28:02.489Z,101370.19
2019-01-21T21:30:32.381Z,101373.56
2019-01-21T21:33:01.651Z,101372.85
2019-01-21T21:35:30.921Z,101372.80
2019-01-21T21:38:00.184Z,101370.12
2019-01-21T21:40:29.433Z,101368.89
2019-01-21T21:42:58.709Z,101367.16
2019-01-21T21:45:28.079Z,101363.95
2019-01-21T21:48:01.107Z,101354.27
2019-01-21T21:50:30.986Z,101356.59
2019-01-21T21:53:00.263Z,101356.52
2019-01-21T21:55:29.748Z,101343.35
2019-01-21T21:57:59.058Z,101342.73
2019-01-21T22:00:28.956Z,101343.91
2019-01-21T22:02:58.232Z,101338.58
2019-01-21T22:05:27.672Z,101335.50
2019-01-21T22:07:56.983Z,101339.61
2019-01-21T22:10:27.314Z,101333.83
2019-01-21T22:12:56.650Z,101331.38
2019-01-21T22:15:26.178Z,101332.63
2019-01-21T22:17:55.455Z,101328.03
2019-01-21T22:20:25.148Z,101322.89
2019-01-21T22:22:54.407Z,101325.65
2019-01-21T22:25:23.681Z,101315.45
2019-01-21T22:27:52.941Z,101315.25
2019-01-21T22:30:24.165Z,101310.63
2019-01-21T22:32:53.425Z,101305.08
2019-01-21T22:35:22.780Z,101303.77
2019-01-21T22:37:52.110Z,101288.11
2019-01-21T22:40:22.206Z,101288.19
2019-01-21T22:42:51.473Z,101280.27
2019-01-21T22:45:21.720Z,101281.23
2019-01-21T22:47:50.988Z,101278.34
2019-01-21T22:50:20.458Z,101274.16
2019-01-21T22:52:49.724Z,101269.64
2019-01-21T22:55:19.072Z,101270.97
2019-01-21T22:57:48.589Z,101267.63
2019-01-21T23:00:27.493Z,101271.09
2019-01-21T23:02:56.832Z,101265.21
2019-01-21T23:05:26.107Z,101264.84
2019-01-21T23:07:55.360Z,101262.06
2019-01-21T23:10:24.623Z,101252.61
2019-01-21T23:12:54.042Z,101251.20
2019-01-21T23:15:25.242Z,101245.14
2019-01-21T23:17:54.487Z,101250.75
2019-01-21T23:20:24.732Z,101247.17
2019-01-21T23:22:54.878Z,101242.41
2019-01-21T23:25:24.559Z,101235.63
2019-01-21T23:27:53.817Z,101228.05
2019-01-21T23:30:23.928Z,101219.31
2019-01-21T23:32:53.179Z,101217.14
2019-01-21T23:35:22.431Z,101210.13
2019-01-21T23:37:51.969Z,101204.61
2019-01-21T23:40:21.222Z,101198.16
2019-01-21T23:42:50.473Z,101198.85
2019-01-21T23:45:19.707Z,101190.09
2019-01-21T23:47:49.052Z,101190.80
2019-01-21T23:50:18.301Z,101182.69
2019-01-21T23:52:47.574Z,101181.14
2019-01-21T23:55:16.819Z,101172.83
2019-01-21T23:57:46.082Z,101175.09
